createdAt,value
2024-01-28T00:02:31.189Z,101954.13
2024-01-28T00:05:33.488Z,101962.16
2024-01-28T00:08:35.895Z,101961.78
2024-01-28T00:11:38.058Z,101958.13
2024-01-28T00:14:39.920Z,101957.56
2024-01-28T00:17:41.957Z,101975.88
2024-01-28T00:20:43.696Z,101972.78
2024-01-28T00:23:45.486Z,101967.00
2024-01-28T00:26:47.495Z,101976.69
2024-01-28T00:29:49.305Z,101980.59
2024-01-28T00:32:51.154Z,101979.16
2024-01-28T00:35:52.886Z,101988.00
2024-01-28T00:38:54.984Z,101985.09
2024-01-28T00:41:56.957Z,101988.28
2024-01-28T00:44:58.788Z,101996.81
2024-01-28T00:48:00.786Z,101994.84
2024-01-28T00:51:02.610Z,102000.31
2024-01-28T00:54:05.584Z,101997.66
2024-01-28T00:57:08.179Z,102000.06
2024-01-28T01:00:11.310Z,101992.19
2024-01-28T01:03:13.254Z,102010.25
2024-01-28T01:06:15.171Z,102003.22
2024-01-28T01:09:17.571Z,102006.09
2024-01-28T01:12:19.742Z,102005.34
2024-01-28T01:15:21.586Z,102012.66
2024-01-28T01:18:25.303Z,102023.63
2024-01-28T01:21:27.269Z,102026.28
2024-01-28T01:24:29.298Z,102030.28
2024-01-28T01:27:31.157Z,102019.44
2024-01-28T01:30:33.102Z,102031.66
2024-01-28T01:33:35.062Z,102028.81
2024-01-28T01:36:36.951Z,102027.28
2024-01-28T01:39:38.757Z,102038.00
2024-01-28T01:42:40.673Z,102046.78
2024-01-28T01:45:44.039Z,102041.97
2024-01-28T01:48:47.425Z,102040.94
2024-01-28T01:51:50.274Z,102048.63
2024-01-28T01:54:54.936Z,102049.44
2024-01-28T01:57:58.146Z,102053.50
2024-01-28T02:01:01.911Z,102051.63
2024-01-28T02:04:05.158Z,102048.28
2024-01-28T02:07:08.163Z,102040.88
2024-01-28T02:10:11.081Z,102032.44
2024-01-28T02:13:13.446Z,102035.69
2024-01-28T02:16:15.306Z,102032.91
2024-01-28T02:19:20.947Z,102029.41
2024-01-28T02:22:22.825Z,102033.88
2024-01-28T02:25:25.245Z,102041.16
2024-01-28T02:28:27.037Z,102052.09
2024-01-28T02:31:28.853Z,102058.75
2024-01-28T02:34:30.754Z,102060.63
2024-01-28T02:37:32.562Z,102058.91
2024-01-28T02:40:34.377Z,102056.28
2024-01-28T02:43:36.167Z,102055.09
2024-01-28T02:46:38.004Z,102068.00
2024-01-28T02:49:41.373Z,102054.16
2024-01-28T02:52:43.232Z,102068.97
2024-01-28T02:55:45.052Z,102072.06
2024-01-28T02:58:46.859Z,102064.59
2024-01-28T03:01:49.562Z,102051.41
2024-01-28T03:04:51.609Z,102063.03
2024-01-28T03:07:53.390Z,102068.91
2024-01-28T03:10:55.154Z,102063.22
2024-01-28T03:13:57.302Z,102065.91
2024-01-28T03:16:59.154Z,102065.84
2024-01-28T03:20:00.957Z,102051.31
2024-01-28T03:23:02.788Z,102066.75
2024-01-28T03:26:04.572Z,102066.97
2024-01-28T03:29:06.404Z,102068.44
2024-01-28T03:32:08.191Z,102078.47
2024-01-28T03:35:11.345Z,102088.13
2024-01-28T03:38:13.260Z,102091.72
2024-01-28T03:41:15.861Z,102095.66
2024-01-28T03:44:23.461Z,102096.53
2024-01-28T03:47:25.370Z,102099.44
2024-01-28T03:50:27.363Z,102100.78
2024-01-28T03:53:29.228Z,102102.00
2024-01-28T03:56:31.027Z,102103.91
2024-01-28T03:59:32.811Z,102099.09
2024-01-28T04:02:34.694Z,102111.25
2024-01-28T04:05:36.740Z,102120.28
2024-01-28T04:08:38.537Z,102126.59
2024-01-28T04:11:40.592Z,102116.94
2024-01-28T04:14:42.406Z,102107.75
2024-01-28T04:17:44.999Z,102117.50
2024-01-28T04:20:46.876Z,102119.19
2024-01-28T04:23:48.661Z,102117.84
2024-01-28T04:26:50.485Z,102124.44
2024-01-28T04:29:52.289Z,102123.41
2024-01-28T04:32:54.127Z,102134.81
2024-01-28T04:35:56.086Z,102132.03
2024-01-28T04:38:58.189Z,102144.44
2024-01-28T04:41:59.974Z,102146.50
2024-01-28T04:45:01.905Z,102145.75
2024-01-28T04:48:03.988Z,102148.84
2024-01-28T04:51:06.417Z,102145.91
2024-01-28T04:54:09.308Z,102159.25
2024-01-28T04:57:11.231Z,102153.31
2024-01-28T05:00:13.756Z,102151.19
2024-01-28T05:03:15.955Z,102149.06
2024-01-28T05:06:17.871Z,102159.06
2024-01-28T05:09:20.382Z,102168.13
2024-01-28T05:12:22.578Z,102160.91
2024-01-28T05:15:24.431Z,102177.09
2024-01-28T05:18:27.401Z,102176.69
2024-01-28T05:21:29.705Z,102166.56
2024-01-28T05:24:32.588Z,102183.66
2024-01-28T05:27:35.510Z,102178.78
2024-01-28T05:30:37.474Z,102174.28
2024-01-28T05:33:40.337Z,102180.47
2024-01-28T05:36:43.053Z,102179.75
2024-01-28T05:39:45.498Z,102181.44
2024-01-28T05:42:47.472Z,102188.25
2024-01-28T05:45:49.420Z,102197.28
2024-01-28T05:48:51.375Z,102188.13
2024-01-28T05:51:53.237Z,102190.94
2024-01-28T05:54:55.089Z,102198.75
2024-01-28T05:57:56.907Z,102208.47
2024-01-28T06:01:03.438Z,102207.06
2024-01-28T06:04:06.411Z,102209.53
2024-01-28T06:07:08.292Z,102222.19
2024-01-28T06:10:10.622Z,102226.56
2024-01-28T06:13:12.549Z,102233.97
2024-01-28T06:16:14.478Z,102232.84
2024-01-28T06:19:16.636Z,102235.97
2024-01-28T06:22:18.477Z,102233.13
2024-01-28T06:25:20.658Z,102243.97
2024-01-28T06:28:22.548Z,102235.06
2024-01-28T06:31:24.608Z,102237.97
2024-01-28T06:34:26.509Z,102244.84
2024-01-28T06:37:28.496Z,102245.22
2024-01-28T06:40:30.602Z,102239.66
2024-01-28T06:43:32.689Z,102243.25
2024-01-28T06:46:34.496Z,102248.63
2024-01-28T06:49:36.370Z,102245.78
2024-01-28T06:52:38.355Z,102265.81
2024-01-28T06:55:40.144Z,102259.56
2024-01-28T06:58:43.607Z,102261.16
2024-01-28T07:01:46.373Z,102248.41
2024-01-28T07:04:48.221Z,102260.06
2024-01-28T07:07:50.201Z,102250.22
2024-01-28T07:10:52.045Z,102248.56
2024-01-28T07:13:53.884Z,102250.28
2024-01-28T07:16:55.768Z,102260.69
2024-01-28T07:19:57.784Z,102262.25
2024-01-28T07:22:59.789Z,102266.28
2024-01-28T07:26:01.555Z,102265.06
2024-01-28T07:29:04.829Z,102263.69
2024-01-28T07:32:06.775Z,102272.72
2024-01-28T07:35:08.805Z,102276.53
2024-01-28T07:38:10.732Z,102278.66
2024-01-28T07:41:15.692Z,102281.75
2024-01-28T07:44:17.596Z,102274.50
2024-01-28T07:47:19.338Z,102274.16
2024-01-28T07:50:22.293Z,102272.72
2024-01-28T07:53:24.128Z,102272.19
2024-01-28T07:56:25.996Z,102275.91
2024-01-28T07:59:27.785Z,102296.56
2024-01-28T08:02:29.585Z,102287.78
2024-01-28T08:05:31.470Z,102290.63
2024-01-28T08:08:34.416Z,102288.81
2024-01-28T08:11:36.216Z,102295.47
2024-01-28T08:14:37.988Z,102294.25
2024-01-28T08:17:39.721Z,102293.78
2024-01-28T08:20:41.549Z,102297.63
2024-01-28T08:23:43.314Z,102295.72
2024-01-28T08:26:45.269Z,102299.69
2024-01-28T08:29:50.206Z,102302.38
2024-01-28T08:32:53.363Z,102305.22
2024-01-28T08:35:55.272Z,102296.13
2024-01-28T08:38:57.309Z,102300.59
2024-01-28T08:42:00.649Z,102303.63
2024-01-28T08:45:02.515Z,102297.09
2024-01-28T08:48:05.187Z,102307.34
2024-01-28T08:51:07.706Z,102309.56
2024-01-28T08:54:09.917Z,102313.53
2024-01-28T08:57:12.204Z,102315.66
2024-01-28T09:00:15.376Z,102304.94
2024-01-28T09:03:17.324Z,102318.22
2024-01-28T09:06:20.204Z,102320.97
2024-01-28T09:09:23.009Z,102318.25
2024-01-28T09:12:25.717Z,102312.38
2024-01-28T09:15:27.754Z,102317.75
2024-01-28T09:18:29.616Z,102314.94
2024-01-28T09:21:32.211Z,102312.09
2024-01-28T09:24:34.065Z,102319.28
2024-01-28T09:27:35.919Z,102320.50
2024-01-28T09:30:38.025Z,102316.22
2024-01-28T09:33:39.913Z,102332.13
2024-01-28T09:36:41.790Z,102329.88
2024-01-28T09:39:43.705Z,102333.66
2024-01-28T09:43:09.284Z,102340.72
2024-01-28T09:46:11.056Z,102332.09
2024-01-28T09:49:14.728Z,102341.75
2024-01-28T09:52:18.409Z,102338.25
2024-01-28T09:55:20.156Z,102343.50
2024-01-28T09:58:23.174Z,102344.72
2024-01-28T10:01:27.872Z,102346.00
2024-01-28T10:04:31.047Z,102340.72
2024-01-28T10:07:46.572Z,102340.50
2024-01-28T10:10:48.446Z,102328.94
2024-01-28T10:13:50.344Z,102345.47
2024-01-28T10:16:52.097Z,102334.81
2024-01-28T10:19:54.034Z,102323.81
2024-01-28T10:22:55.943Z,102333.38
2024-01-28T10:25:59.464Z,102328.13
2024-01-28T10:29:01.274Z,102322.91
2024-01-28T10:32:03.465Z,102326.44
2024-01-28T10:35:13.598Z,102322.72
2024-01-28T10:38:23.678Z,102314.34
2024-01-28T10:41:25.901Z,102314.94
2024-01-28T10:44:28.217Z,102306.44
2024-01-28T10:47:32.985Z,102306.13
2024-01-28T10:50:35.678Z,102304.75
2024-01-28T10:53:39.438Z,102299.47
2024-01-28T10:56:44.257Z,102296.50
2024-01-28T10:59:46.224Z,102305.22
2024-01-28T11:02:50.908Z,102285.03
2024-01-28T11:05:53.182Z,102289.69
2024-01-28T11:08:58.318Z,102289.03
2024-01-28T11:12:00.370Z,102294.44
2024-01-28T11:15:02.474Z,102292.16
2024-01-28T11:18:08.112Z,102302.66
2024-01-28T11:21:13.745Z,102305.25
2024-01-28T11:24:15.775Z,102293.78
2024-01-28T11:27:17.600Z,102289.16
2024-01-28T11:30:23.905Z,102284.38
2024-01-28T11:33:26.207Z,102271.84
2024-01-28T11:36:30.044Z,102286.81
2024-01-28T11:39:35.017Z,102289.44
2024-01-28T11:42:36.999Z,102285.09
2024-01-28T11:45:39.628Z,102271.91
2024-01-28T11:48:43.268Z,102267.06
2024-01-28T11:51:45.181Z,102272.25
2024-01-28T11:54:48.804Z,102274.25
2024-01-28T11:57:50.777Z,102275.84
2024-01-28T12:00:53.144Z,102272.59
2024-01-28T12:03:56.324Z,102267.34
2024-01-28T12:06:59.132Z,102273.09
2024-01-28T12:10:01.627Z,102267.47
2024-01-28T12:13:06.643Z,102263.50
2024-01-28T12:16:09.309Z,102269.47
2024-01-28T12:19:15.268Z,102273.69
2024-01-28T12:22:17.277Z,102274.53
2024-01-28T12:25:23.800Z,102269.25
2024-01-28T12:28:26.574Z,102275.63
2024-01-28T12:31:29.676Z,102264.50
2024-01-28T12:34:31.610Z,102267.00
2024-01-28T12:37:33.570Z,102258.31
2024-01-28T12:40:35.342Z,102257.50
2024-01-28T12:43:41.671Z,102262.47
2024-01-28T12:46:43.427Z,102261.00
2024-01-28T12:49:45.324Z,102260.78
2024-01-28T12:52:47.334Z,102255.06
2024-01-28T12:55:49.237Z,102262.03
2024-01-28T12:58:51.130Z,102271.09
2024-01-28T13:01:53.291Z,102256.56
2024-01-28T13:04:55.851Z,102273.66
2024-01-28T13:07:57.810Z,102276.47
2024-01-28T13:11:02.405Z,102265.88
2024-01-28T13:14:04.735Z,102271.25
2024-01-28T13:17:06.581Z,102275.56
2024-01-28T13:20:10.441Z,102274.31
2024-01-28T13:23:12.387Z,102271.09
2024-01-28T13:26:14.502Z,102285.72
2024-01-28T13:29:16.340Z,102286.03
2024-01-28T13:32:21.478Z,102273.81
2024-01-28T13:35:23.310Z,102273.47
2024-01-28T13:38:25.457Z,102274.63
2024-01-28T13:41:27.183Z,102279.94
2024-01-28T13:44:29.004Z,102278.19
2024-01-28T13:47:30.862Z,102278.59
2024-01-28T13:50:32.743Z,102284.00
2024-01-28T13:53:36.924Z,102290.34
2024-01-28T13:56:39.557Z,102282.06
2024-01-28T13:59:41.392Z,102285.06
2024-01-28T14:02:44.975Z,102286.81
2024-01-28T14:05:46.949Z,102280.78
2024-01-28T14:08:50.558Z,102284.44
2024-01-28T14:11:52.529Z,102294.31
2024-01-28T14:14:54.330Z,102291.88
2024-01-28T14:17:56.162Z,102284.22
2024-01-28T14:20:58.063Z,102286.44
2024-01-28T14:23:59.944Z,102286.66
2024-01-28T14:27:01.774Z,102294.22
2024-01-28T14:30:04.102Z,102290.91
2024-01-28T14:33:06.031Z,102293.53
2024-01-28T14:36:08.409Z,102294.06
2024-01-28T14:39:11.152Z,102304.31
2024-01-28T14:42:13.770Z,102291.72
2024-01-28T14:45:16.078Z,102289.19
2024-01-28T14:48:21.898Z,102294.09
2024-01-28T14:51:25.100Z,102299.56
2024-01-28T14:54:26.889Z,102299.16
2024-01-28T14:57:28.751Z,102302.88
2024-01-28T15:00:30.556Z,102307.91
2024-01-28T15:03:32.527Z,102304.25
2024-01-28T15:06:34.535Z,102305.94
2024-01-28T15:09:36.723Z,102310.25
2024-01-28T15:12:38.544Z,102308.22
2024-01-28T15:15:40.424Z,102303.91
2024-01-28T15:18:42.715Z,102304.88
2024-01-28T15:21:44.612Z,102306.63
2024-01-28T15:24:46.568Z,102305.13
2024-01-28T15:27:48.605Z,102313.44
2024-01-28T15:30:50.421Z,102308.13
2024-01-28T15:33:52.344Z,102309.00
2024-01-28T15:36:55.057Z,102308.44
2024-01-28T15:39:57.547Z,102312.09
2024-01-28T15:42:59.463Z,102322.66
2024-01-28T15:46:04.634Z,102329.28
2024-01-28T15:49:07.290Z,102321.84
2024-01-28T15:52:09.112Z,102323.75
2024-01-28T15:55:17.020Z,102333.00
2024-01-28T15:58:24.337Z,102342.72
2024-01-28T16:01:29.104Z,102345.78
2024-01-28T16:04:31.690Z,102346.31
2024-01-28T16:07:33.667Z,102349.19
2024-01-28T16:10:35.546Z,102353.97
2024-01-28T16:13:37.449Z,102356.41
2024-01-28T16:16:39.388Z,102355.88
2024-01-28T16:19:41.340Z,102361.38
2024-01-28T16:22:43.266Z,102367.06
2024-01-28T16:25:45.226Z,102364.59
2024-01-28T16:28:48.511Z,102369.81
2024-01-28T16:31:50.380Z,102386.56
2024-01-28T16:34:53.063Z,102395.19
2024-01-28T16:37:54.941Z,102387.44
2024-01-28T16:40:56.798Z,102399.59
2024-01-28T16:43:58.641Z,102394.69
2024-01-28T16:47:01.070Z,102406.28
2024-01-28T16:50:04.640Z,102399.44
2024-01-28T16:53:06.747Z,102392.25
2024-01-28T16:56:08.667Z,102402.50
2024-01-28T16:59:10.470Z,102407.69
2024-01-28T17:02:12.292Z,102410.06
2024-01-28T17:05:14.243Z,102400.06
2024-01-28T17:08:16.046Z,102399.84
2024-01-28T17:11:17.955Z,102394.91
2024-01-28T17:14:23.738Z,102401.72
2024-01-28T17:17:25.859Z,102398.81
2024-01-28T17:20:27.983Z,102399.47
2024-01-28T17:23:29.803Z,102409.81
2024-01-28T17:26:31.792Z,102412.13
2024-01-28T17:29:35.068Z,102418.56
2024-01-28T17:32:36.953Z,102418.75
2024-01-28T17:35:39.447Z,102421.22
2024-01-28T17:38:41.636Z,102414.09
2024-01-28T17:41:43.605Z,102425.72
2024-01-28T17:44:45.442Z,102429.84
2024-01-28T17:47:48.325Z,102431.41
2024-01-28T17:50:50.512Z,102435.41
2024-01-28T17:53:52.938Z,102435.97
2024-01-28T17:56:54.827Z,102440.19
2024-01-28T17:59:56.931Z,102445.16
2024-01-28T18:02:59.277Z,102453.88
2024-01-28T18:06:01.270Z,102451.78
2024-01-28T18:09:07.916Z,102453.84
2024-01-28T18:12:09.904Z,102464.34
2024-01-28T18:15:11.990Z,102464.66
2024-01-28T18:18:14.482Z,102466.53
2024-01-28T18:21:16.631Z,102462.44
2024-01-28T18:24:18.593Z,102480.13
2024-01-28T18:27:20.509Z,102485.56
2024-01-28T18:30:22.733Z,102477.00
2024-01-28T18:33:25.002Z,102485.72
2024-01-28T18:36:28.311Z,102485.38
2024-01-28T18:39:30.230Z,102489.25
2024-01-28T18:42:32.020Z,102496.13
2024-01-28T18:45:33.909Z,102484.38
2024-01-28T18:48:36.154Z,102488.66
2024-01-28T18:51:38.066Z,102492.63
2024-01-28T18:54:40.084Z,102499.09
2024-01-28T18:57:42.424Z,102492.81
2024-01-28T19:00:46.946Z,102502.59
2024-01-28T19:03:49.145Z,102502.06
2024-01-28T19:06:51.055Z,102499.28
2024-01-28T19:09:52.948Z,102506.56
2024-01-28T19:15:56.784Z,102512.03
2024-01-28T19:18:58.794Z,102520.31
2024-01-28T19:22:00.780Z,102515.97
2024-01-28T19:25:03.254Z,102509.78
2024-01-28T19:28:05.507Z,102512.69
2024-01-28T19:31:07.873Z,102518.59
2024-01-28T19:34:14.010Z,102516.78
2024-01-28T19:37:18.778Z,102522.06
2024-01-28T19:40:21.144Z,102518.22
2024-01-28T19:43:23.035Z,102521.22
2024-01-28T19:46:24.852Z,102512.22
2024-01-28T19:49:26.867Z,102514.31
2024-01-28T19:52:28.659Z,102522.81
2024-01-28T19:55:30.499Z,102526.50
2024-01-28T19:58:34.857Z,102523.25
2024-01-28T20:01:36.785Z,102528.88
2024-01-28T20:04:38.944Z,102536.31
2024-01-28T20:07:41.025Z,102533.16
2024-01-28T20:10:42.831Z,102526.22
2024-01-28T20:13:45.360Z,102526.63
2024-01-28T20:16:47.238Z,102530.38
2024-01-28T20:19:49.232Z,102527.84
2024-01-28T20:22:51.927Z,102538.72
2024-01-28T20:25:55.679Z,102543.28
2024-01-28T20:28:57.943Z,102543.50
2024-01-28T20:31:59.929Z,102549.81
2024-01-28T20:35:02.669Z,102554.63
2024-01-28T20:38:04.874Z,102552.25
2024-01-28T20:41:07.058Z,102560.16
2024-01-28T20:44:08.896Z,102564.19
2024-01-28T20:47:16.833Z,102558.06
2024-01-28T20:50:19.311Z,102565.09
2024-01-28T20:53:21.174Z,102558.31
2024-01-28T20:56:24.132Z,102565.41
2024-01-28T20:59:25.949Z,102563.59
2024-01-28T21:02:27.710Z,102566.19
2024-01-28T21:05:29.669Z,102562.75
2024-01-28T21:08:31.594Z,102571.84
2024-01-28T21:11:33.381Z,102579.88
2024-01-28T21:14:36.066Z,102581.50
2024-01-28T21:17:38.541Z,102589.63
2024-01-28T21:20:41.027Z,102596.72
2024-01-28T21:23:42.940Z,102584.47
2024-01-28T21:26:44.813Z,102588.03
2024-01-28T21:29:46.699Z,102599.41
2024-01-28T21:32:48.854Z,102609.22
2024-01-28T21:35:50.640Z,102603.81
2024-01-28T21:38:52.452Z,102607.38
2024-01-28T21:41:55.613Z,102611.00
2024-01-28T21:44:59.893Z,102604.91
2024-01-28T21:48:02.271Z,102605.78
2024-01-28T21:51:04.380Z,102611.09
2024-01-28T21:54:06.212Z,102625.19
2024-01-28T21:57:08.001Z,102625.19
2024-01-28T22:00:10.417Z,102619.00
2024-01-28T22:03:12.295Z,102627.88
2024-01-28T22:06:14.120Z,102632.31
2024-01-28T22:09:15.866Z,102636.75
2024-01-28T22:12:17.696Z,102637.56
2024-01-28T22:15:19.659Z,102635.84
2024-01-28T22:18:21.752Z,102630.56
2024-01-28T22:21:24.641Z,102646.44
2024-01-28T22:24:26.898Z,102645.50
2024-01-28T22:27:28.816Z,102650.84
2024-01-28T22:30:31.397Z,102643.78
2024-01-28T22:33:33.582Z,102645.53
2024-01-28T22:36:35.651Z,102661.41
2024-01-28T22:39:37.522Z,102658.75
2024-01-28T22:42:40.140Z,102656.09
2024-01-28T22:45:42.011Z,102657.00
2024-01-28T22:48:43.997Z,102656.09
2024-01-28T22:51:45.992Z,102662.25
2024-01-28T22:54:47.932Z,102655.19
2024-01-28T22:57:49.808Z,102653.47
2024-01-28T23:00:52.695Z,102657.84
2024-01-28T23:03:54.740Z,102662.28
2024-01-28T23:06:56.713Z,102661.41
2024-01-28T23:09:58.611Z,102659.59
2024-01-28T23:13:06.365Z,102660.53
2024-01-28T23:16:09.188Z,102664.03
2024-01-28T23:19:11.387Z,102654.38
2024-01-28T23:22:13.208Z,102658.75
2024-01-28T23:25:15.346Z,102651.75
2024-01-28T23:28:20.589Z,102649.09
2024-01-28T23:31:22.365Z,102655.25
2024-01-28T23:34:24.224Z,102642.94
2024-01-28T23:37:26.504Z,102647.34
2024-01-28T23:40:28.461Z,102642.03
2024-01-28T23:43:30.380Z,102639.41
2024-01-28T23:46:32.188Z,102638.53
2024-01-28T23:49:34.249Z,102641.16
2024-01-28T23:52:36.638Z,102651.72
2024-01-28T23:55:38.437Z,102636.75
2024-01-28T23:58:40.186Z,102640.28
